sensor_id;sensor_type;location;lat;lon;timestamp;P1;durP1;ratioP1;P2;durP2;ratioP2
68940;SDS011;55982;51.476;7.552;2023-04-01T00:00:55;3.85;;;1.15;;
68940;SDS011;55982;51.476;7.552;2023-04-01T00:03:22;6.03;;;1.42;;
68940;SDS011;55982;51.476;7.552;2023-04-01T00:05:49;10.00;;;1.92;;
68940;SDS011;55982;51.476;7.552;2023-04-01T00:08:15;4.15;;;1.33;;
68940;SDS011;55982;51.476;7.552;2023-04-01T00:10:40;5.22;;;1.20;;
68940;SDS011;55982;51.476;7.552;2023-04-01T00:13:06;2.50;;;1.27;;
68940;SDS011;55982;51.476;7.552;2023-04-01T00:15:32;8.73;;;1.85;;
68940;SDS011;55982;51.476;7.552;2023-04-01T00:17:57;3.25;;;1.30;;
68940;SDS011;55982;51.476;7.552;2023-04-01T00:20:23;5.13;;;1.40;;
68940;SDS011;55982;51.476;7.552;2023-04-01T00:22:49;6.13;;;1.90;;
68940;SDS011;55982;51.476;7.552;2023-04-01T00:25:14;4.95;;;1.92;;
68940;SDS011;55982;51.476;7.552;2023-04-01T00:27:40;4.53;;;1.60;;
68940;SDS011;55982;51.476;7.552;2023-04-01T00:30:06;5.43;;;1.35;;
68940;SDS011;55982;51.476;7.552;2023-04-01T00:32:32;3.85;;;1.52;;
68940;SDS011;55982;51.476;7.552;2023-04-01T00:34:58;3.67;;;1.52;;
68940;SDS011;55982;51.476;7.552;2023-04-01T00:37:26;3.20;;;1.20;;
68940;SDS011;55982;51.476;7.552;2023-04-01T00:39:52;7.10;;;1.80;;
68940;SDS011;55982;51.476;7.552;2023-04-01T00:42:18;7.68;;;1.88;;
68940;SDS011;55982;51.476;7.552;2023-04-01T00:44:45;6.25;;;1.60;;
68940;SDS011;55982;51.476;7.552;2023-04-01T00:47:15;2.70;;;1.40;;
68940;SDS011;55982;51.476;7.552;2023-04-01T00:49:42;2.35;;;1.40;;
68940;SDS011;55982;51.476;7.552;2023-04-01T00:52:11;3.65;;;1.40;;
68940;SDS011;55982;51.476;7.552;2023-04-01T00:54:41;6.18;;;1.70;;
68940;SDS011;55982;51.476;7.552;2023-04-01T00:57:14;3.05;;;1.73;;
68940;SDS011;55982;51.476;7.552;2023-04-01T00:59:47;2.47;;;1.65;;
68940;SDS011;55982;51.476;7.552;2023-04-01T01:02:15;6.07;;;1.95;;
68940;SDS011;55982;51.476;7.552;2023-04-01T01:04:41;3.38;;;1.60;;
68940;SDS011;55982;51.476;7.552;2023-04-01T01:10:00;5.28;;;1.92;;
68940;SDS011;55982;51.476;7.552;2023-04-01T01:15:12;3.40;;;1.70;;
68940;SDS011;55982;51.476;7.552;2023-04-01T01:18:09;2.78;;;1.65;;
68940;SDS011;55982;51.476;7.552;2023-04-01T01:29:01;2.55;;;1.80;;
68940;SDS011;55982;51.476;7.552;2023-04-01T01:31:37;4.28;;;1.80;;
68940;SDS011;55982;51.476;7.552;2023-04-01T01:36:45;3.00;;;1.42;;
68940;SDS011;55982;51.476;7.552;2023-04-01T01:39:16;4.05;;;1.58;;
68940;SDS011;55982;51.476;7.552;2023-04-01T01:41:42;4.18;;;1.60;;
68940;SDS011;55982;51.476;7.552;2023-04-01T01:44:12;5.53;;;1.80;;
68940;SDS011;55982;51.476;7.552;2023-04-01T01:46:40;1.77;;;1.38;;
68940;SDS011;55982;51.476;7.552;2023-04-01T01:49:07;2.88;;;1.38;;
68940;SDS011;55982;51.476;7.552;2023-04-01T01:51:35;2.05;;;1.30;;
68940;SDS011;55982;51.476;7.552;2023-04-01T01:54:01;8.07;;;1.40;;
68940;SDS011;55982;51.476;7.552;2023-04-01T01:56:27;3.42;;;1.40;;
68940;SDS011;55982;51.476;7.552;2023-04-01T01:58:55;5.32;;;1.52;;
68940;SDS011;55982;51.476;7.552;2023-04-01T02:01:32;2.53;;;1.40;;
68940;SDS011;55982;51.476;7.552;2023-04-01T02:04:03;2.45;;;1.20;;
68940;SDS011;55982;51.476;7.552;2023-04-01T02:06:30;3.42;;;1.25;;
68940;SDS011;55982;51.476;7.552;2023-04-01T02:09:03;2.85;;;1.30;;
68940;SDS011;55982;51.476;7.552;2023-04-01T02:16:36;4.45;;;1.10;;
68940;SDS011;55982;51.476;7.552;2023-04-01T02:19:08;3.35;;;1.13;;
68940;SDS011;55982;51.476;7.552;2023-04-01T02:21:37;2.78;;;1.13;;
68940;SDS011;55982;51.476;7.552;2023-04-01T02:24:06;0.77;;;0.77;;
68940;SDS011;55982;51.476;7.552;2023-04-01T02:26:35;3.22;;;1.30;;
68940;SDS011;55982;51.476;7.552;2023-04-01T02:29:01;1.50;;;1.17;;
68940;SDS011;55982;51.476;7.552;2023-04-01T02:31:29;3.00;;;0.85;;
68940;SDS011;55982;51.476;7.552;2023-04-01T02:33:55;1.15;;;0.90;;
68940;SDS011;55982;51.476;7.552;2023-04-01T02:36:21;2.28;;;0.93;;
68940;SDS011;55982;51.476;7.552;2023-04-01T02:38:47;4.20;;;1.10;;
68940;SDS011;55982;51.476;7.552;2023-04-01T02:41:13;5.20;;;1.10;;
68940;SDS011;55982;51.476;7.552;2023-04-01T02:43:38;5.43;;;0.98;;
68940;SDS011;55982;51.476;7.552;2023-04-01T02:46:05;3.28;;;1.15;;
68940;SDS011;55982;51.476;7.552;2023-04-01T02:48:31;2.90;;;1.10;;
68940;SDS011;55982;51.476;7.552;2023-04-01T02:50:57;2.22;;;1.00;;
68940;SDS011;55982;51.476;7.552;2023-04-01T02:53:22;1.83;;;0.90;;
68940;SDS011;55982;51.476;7.552;2023-04-01T02:55:47;2.80;;;1.20;;
68940;SDS011;55982;51.476;7.552;2023-04-01T02:58:15;2.75;;;1.08;;
68940;SDS011;55982;51.476;7.552;2023-04-01T03:00:41;1.42;;;0.80;;
68940;SDS011;55982;51.476;7.552;2023-04-01T03:03:06;0.95;;;0.70;;
68940;SDS011;55982;51.476;7.552;2023-04-01T03:05:32;1.65;;;0.82;;
68940;SDS011;55982;51.476;7.552;2023-04-01T03:07:57;1.83;;;0.90;;
68940;SDS011;55982;51.476;7.552;2023-04-01T03:10:22;0.77;;;0.68;;
68940;SDS011;55982;51.476;7.552;2023-04-01T03:12:48;1.67;;;0.70;;
68940;SDS011;55982;51.476;7.552;2023-04-01T03:15:13;2.65;;;0.75;;
68940;SDS011;55982;51.476;7.552;2023-04-01T03:17:42;0.68;;;0.68;;
68940;SDS011;55982;51.476;7.552;2023-04-01T03:20:08;2.00;;;0.73;;
68940;SDS011;55982;51.476;7.552;2023-04-01T03:22:35;2.47;;;0.90;;
68940;SDS011;55982;51.476;7.552;2023-04-01T03:25:01;1.00;;;0.85;;
68940;SDS011;55982;51.476;7.552;2023-04-01T03:27:27;1.27;;;0.80;;
68940;SDS011;55982;51.476;7.552;2023-04-01T03:29:53;1.35;;;0.82;;
68940;SDS011;55982;51.476;7.552;2023-04-01T03:32:18;7.25;;;0.90;;
68940;SDS011;55982;51.476;7.552;2023-04-01T03:34:44;1.60;;;0.80;;
68940;SDS011;55982;51.476;7.552;2023-04-01T03:37:09;0.85;;;0.82;;
68940;SDS011;55982;51.476;7.552;2023-04-01T03:39:35;3.03;;;0.80;;
68940;SDS011;55982;51.476;7.552;2023-04-01T03:42:00;2.38;;;0.80;;
68940;SDS011;55982;51.476;7.552;2023-04-01T03:44:26;0.68;;;0.68;;
68940;SDS011;55982;51.476;7.552;2023-04-01T03:46:55;2.47;;;1.00;;
68940;SDS011;55982;51.476;7.552;2023-04-01T03:49:20;2.22;;;1.10;;
68940;SDS011;55982;51.476;7.552;2023-04-01T03:51:45;1.15;;;1.00;;
68940;SDS011;55982;51.476;7.552;2023-04-01T03:54:11;1.40;;;0.90;;
68940;SDS011;55982;51.476;7.552;2023-04-01T03:56:36;1.52;;;0.90;;
68940;SDS011;55982;51.476;7.552;2023-04-01T03:59:03;1.05;;;0.70;;
68940;SDS011;55982;51.476;7.552;2023-04-01T04:01:30;3.50;;;0.80;;
68940;SDS011;55982;51.476;7.552;2023-04-01T04:03:56;1.00;;;0.80;;
68940;SDS011;55982;51.476;7.552;2023-04-01T04:06:22;2.17;;;0.63;;
68940;SDS011;55982;51.476;7.552;2023-04-01T04:08:48;4.00;;;0.82;;
68940;SDS011;55982;51.476;7.552;2023-04-01T04:11:14;1.58;;;1.00;;
68940;SDS011;55982;51.476;7.552;2023-04-01T04:13:40;0.95;;;0.77;;
68940;SDS011;55982;51.476;7.552;2023-04-01T04:16:05;2.45;;;0.95;;
68940;SDS011;55982;51.476;7.552;2023-04-01T04:18:31;1.27;;;0.88;;
68940;SDS011;55982;51.476;7.552;2023-04-01T04:20:56;1.40;;;0.90;;
68940;SDS011;55982;51.476;7.552;2023-04-01T04:23:22;1.20;;;1.00;;
68940;SDS011;55982;51.476;7.552;2023-04-01T04:25:57;1.98;;;1.48;;
68940;SDS011;55982;51.476;7.552;2023-04-01T04:28:25;1.73;;;1.08;;
68940;SDS011;55982;51.476;7.552;2023-04-01T04:30:51;4.25;;;1.70;;
68940;SDS011;55982;51.476;7.552;2023-04-01T04:33:17;3.53;;;1.73;;
68940;SDS011;55982;51.476;7.552;2023-04-01T04:35:42;1.50;;;1.35;;
68940;SDS011;55982;51.476;7.552;2023-04-01T04:38:08;2.38;;;1.83;;
68940;SDS011;55982;51.476;7.552;2023-04-01T04:40:35;2.00;;;1.70;;
68940;SDS011;55982;51.476;7.552;2023-04-01T04:43:01;2.90;;;2.03;;
68940;SDS011;55982;51.476;7.552;2023-04-01T04:45:27;2.90;;;2.00;;
68940;SDS011;55982;51.476;7.552;2023-04-01T04:47:52;6.00;;;1.85;;
68940;SDS011;55982;51.476;7.552;2023-04-01T04:50:18;3.70;;;2.25;;
68940;SDS011;55982;51.476;7.552;2023-04-01T04:52:43;3.30;;;2.50;;
68940;SDS011;55982;51.476;7.552;2023-04-01T04:55:08;2.75;;;2.20;;
68940;SDS011;55982;51.476;7.552;2023-04-01T04:57:34;2.42;;;1.88;;
68940;SDS011;55982;51.476;7.552;2023-04-01T04:59:59;3.95;;;1.95;;
68940;SDS011;55982;51.476;7.552;2023-04-01T05:02:25;3.92;;;2.53;;
68940;SDS011;55982;51.476;7.552;2023-04-01T05:04:50;3.60;;;2.28;;
68940;SDS011;55982;51.476;7.552;2023-04-01T05:07:15;2.90;;;1.95;;
68940;SDS011;55982;51.476;7.552;2023-04-01T05:09:41;2.40;;;1.95;;
68940;SDS011;55982;51.476;7.552;2023-04-01T05:12:06;4.68;;;2.50;;
68940;SDS011;55982;51.476;7.552;2023-04-01T05:14:31;3.75;;;2.55;;
68940;SDS011;55982;51.476;7.552;2023-04-01T05:16:57;3.92;;;2.35;;
68940;SDS011;55982;51.476;7.552;2023-04-01T05:19:22;4.20;;;2.58;;
68940;SDS011;55982;51.476;7.552;2023-04-01T05:21:47;4.40;;;2.40;;
68940;SDS011;55982;51.476;7.552;2023-04-01T05:24:13;2.33;;;1.85;;
68940;SDS011;55982;51.476;7.552;2023-04-01T05:26:38;3.60;;;2.33;;
68940;SDS011;55982;51.476;7.552;2023-04-01T05:29:04;2.30;;;2.10;;
68940;SDS011;55982;51.476;7.552;2023-04-01T05:31:30;4.20;;;2.40;;
68940;SDS011;55982;51.476;7.552;2023-04-01T05:33:55;3.28;;;2.30;;
68940;SDS011;55982;51.476;7.552;2023-04-01T05:36:21;4.07;;;2.20;;
68940;SDS011;55982;51.476;7.552;2023-04-01T05:38:46;4.95;;;2.60;;
68940;SDS011;55982;51.476;7.552;2023-04-01T05:41:12;4.22;;;2.40;;
68940;SDS011;55982;51.476;7.552;2023-04-01T05:43:39;4.40;;;2.50;;
68940;SDS011;55982;51.476;7.552;2023-04-01T05:46:04;4.25;;;1.95;;
68940;SDS011;55982;51.476;7.552;2023-04-01T05:48:30;3.30;;;2.35;;
68940;SDS011;55982;51.476;7.552;2023-04-01T05:50:55;3.28;;;2.95;;
68940;SDS011;55982;51.476;7.552;2023-04-01T05:53:21;4.88;;;3.13;;
68940;SDS011;55982;51.476;7.552;2023-04-01T05:55:47;2.40;;;2.13;;
68940;SDS011;55982;51.476;7.552;2023-04-01T05:58:12;3.22;;;2.60;;
68940;SDS011;55982;51.476;7.552;2023-04-01T06:00:38;2.63;;;2.10;;
68940;SDS011;55982;51.476;7.552;2023-04-01T06:03:03;2.97;;;2.67;;
68940;SDS011;55982;51.476;7.552;2023-04-01T06:05:29;4.95;;;3.30;;
68940;SDS011;55982;51.476;7.552;2023-04-01T06:08:05;3.53;;;2.75;;
68940;SDS011;55982;51.476;7.552;2023-04-01T06:10:50;5.00;;;2.70;;
68940;SDS011;55982;51.476;7.552;2023-04-01T06:16:35;3.30;;;2.45;;
68940;SDS011;55982;51.476;7.552;2023-04-01T06:21:50;3.97;;;2.47;;
68940;SDS011;55982;51.476;7.552;2023-04-01T06:41:21;3.00;;;2.10;;
68940;SDS011;55982;51.476;7.552;2023-04-01T06:44:15;1.40;;;1.30;;
68940;SDS011;55982;51.476;7.552;2023-04-01T06:46:53;3.78;;;1.40;;
68940;SDS011;55982;51.476;7.552;2023-04-01T06:54:42;2.10;;;1.40;;
68940;SDS011;55982;51.476;7.552;2023-04-01T06:57:32;1.50;;;1.40;;
68940;SDS011;55982;51.476;7.552;2023-04-01T07:00:04;2.08;;;1.70;;
68940;SDS011;55982;51.476;7.552;2023-04-01T07:02:41;2.08;;;1.48;;
68940;SDS011;55982;51.476;7.552;2023-04-01T07:05:18;1.88;;;1.70;;
68940;SDS011;55982;51.476;7.552;2023-04-01T07:07:48;2.97;;;1.95;;
68940;SDS011;55982;51.476;7.552;2023-04-01T07:13:25;2.67;;;1.63;;
68940;SDS011;55982;51.476;7.552;2023-04-01T07:15:59;1.75;;;1.63;;
68940;SDS011;55982;51.476;7.552;2023-04-01T07:18:37;2.05;;;1.38;;
68940;SDS011;55982;51.476;7.552;2023-04-01T07:21:25;2.08;;;1.55;;
68940;SDS011;55982;51.476;7.552;2023-04-01T07:23:54;1.70;;;1.50;;
68940;SDS011;55982;51.476;7.552;2023-04-01T07:26:25;3.83;;;1.67;;
68940;SDS011;55982;51.476;7.552;2023-04-01T07:28:52;1.48;;;1.38;;
68940;SDS011;55982;51.476;7.552;2023-04-01T07:31:20;1.50;;;1.40;;
68940;SDS011;55982;51.476;7.552;2023-04-01T07:36:58;1.00;;;0.90;;
68940;SDS011;55982;51.476;7.552;2023-04-01T07:42:54;1.23;;;1.05;;
68940;SDS011;55982;51.476;7.552;2023-04-01T07:48:11;0.93;;;0.90;;
68940;SDS011;55982;51.476;7.552;2023-04-01T08:01:15;5.88;;;2.33;;
68940;SDS011;55982;51.476;7.552;2023-04-01T08:06:25;4.05;;;2.30;;
68940;SDS011;55982;51.476;7.552;2023-04-01T08:08:59;4.15;;;1.88;;
68940;SDS011;55982;51.476;7.552;2023-04-01T08:11:57;2.55;;;1.60;;
68940;SDS011;55982;51.476;7.552;2023-04-01T08:14:39;1.92;;;1.40;;
68940;SDS011;55982;51.476;7.552;2023-04-01T08:17:23;3.00;;;2.20;;
68940;SDS011;55982;51.476;7.552;2023-04-01T08:25:48;2.85;;;1.85;;
68940;SDS011;55982;51.476;7.552;2023-04-01T08:28:20;1.90;;;1.60;;
68940;SDS011;55982;51.476;7.552;2023-04-01T08:30:51;1.35;;;1.25;;
68940;SDS011;55982;51.476;7.552;2023-04-01T08:36:02;2.15;;;1.75;;
68940;SDS011;55982;51.476;7.552;2023-04-01T08:38:38;1.92;;;1.20;;
68940;SDS011;55982;51.476;7.552;2023-04-01T08:43:40;1.33;;;1.23;;
68940;SDS011;55982;51.476;7.552;2023-04-01T08:59:55;0.88;;;0.82;;
68940;SDS011;55982;51.476;7.552;2023-04-01T09:02:50;1.00;;;0.90;;
68940;SDS011;55982;51.476;7.552;2023-04-01T09:07:51;1.63;;;0.95;;
68940;SDS011;55982;51.476;7.552;2023-04-01T09:16:29;2.58;;;1.30;;
68940;SDS011;55982;51.476;7.552;2023-04-01T09:21:58;2.60;;;1.60;;
68940;SDS011;55982;51.476;7.552;2023-04-01T09:43:45;2.55;;;1.60;;
68940;SDS011;55982;51.476;7.552;2023-04-01T09:51:39;2.10;;;1.75;;
68940;SDS011;55982;51.476;7.552;2023-04-01T09:54:15;2.20;;;1.75;;
68940;SDS011;55982;51.476;7.552;2023-04-01T09:57:02;3.03;;;2.30;;
68940;SDS011;55982;51.476;7.552;2023-04-01T10:02:43;5.30;;;2.35;;
68940;SDS011;55982;51.476;7.552;2023-04-01T10:36:28;8.23;;;5.93;;
68940;SDS011;55982;51.476;7.552;2023-04-01T10:57:57;6.95;;;5.07;;
68940;SDS011;55982;51.476;7.552;2023-04-01T11:00:59;8.48;;;5.13;;
68940;SDS011;55982;51.476;7.552;2023-04-01T11:06:43;9.57;;;5.28;;
68940;SDS011;55982;51.476;7.552;2023-04-01T11:29:42;5.43;;;3.85;;
68940;SDS011;55982;51.476;7.552;2023-04-01T11:42:54;4.97;;;3.72;;
68940;SDS011;55982;51.476;7.552;2023-04-01T11:45:40;6.00;;;4.30;;
68940;SDS011;55982;51.476;7.552;2023-04-01T11:56:27;5.88;;;3.95;;
68940;SDS011;55982;51.476;7.552;2023-04-01T12:02:14;5.93;;;3.72;;
68940;SDS011;55982;51.476;7.552;2023-04-01T12:11:00;4.82;;;3.60;;
68940;SDS011;55982;51.476;7.552;2023-04-01T12:19:58;4.35;;;3.45;;
68940;SDS011;55982;51.476;7.552;2023-04-01T12:36:49;3.30;;;3.00;;
68940;SDS011;55982;51.476;7.552;2023-04-01T12:44:50;3.63;;;3.15;;
68940;SDS011;55982;51.476;7.552;2023-04-01T12:49:55;3.58;;;3.03;;
68940;SDS011;55982;51.476;7.552;2023-04-01T12:52:44;5.45;;;2.85;;
68940;SDS011;55982;51.476;7.552;2023-04-01T12:58:25;3.92;;;2.55;;
68940;SDS011;55982;51.476;7.552;2023-04-01T13:03:43;3.47;;;2.78;;
68940;SDS011;55982;51.476;7.552;2023-04-01T13:06:36;2.65;;;2.35;;
68940;SDS011;55982;51.476;7.552;2023-04-01T13:20:42;4.97;;;3.45;;
68940;SDS011;55982;51.476;7.552;2023-04-01T13:23:24;5.65;;;4.07;;
68940;SDS011;55982;51.476;7.552;2023-04-01T13:26:04;5.43;;;4.10;;
68940;SDS011;55982;51.476;7.552;2023-04-01T13:29:04;7.47;;;5.05;;
68940;SDS011;55982;51.476;7.552;2023-04-01T13:42:47;5.88;;;4.97;;
68940;SDS011;55982;51.476;7.552;2023-04-01T13:45:19;8.30;;;6.05;;
68940;SDS011;55982;51.476;7.552;2023-04-01T13:48:04;11.18;;;7.30;;
68940;SDS011;55982;51.476;7.552;2023-04-01T13:53:25;11.07;;;7.68;;
68940;SDS011;55982;51.476;7.552;2023-04-01T13:56:23;10.63;;;7.78;;
68940;SDS011;55982;51.476;7.552;2023-04-01T13:59:25;15.55;;;9.70;;
68940;SDS011;55982;51.476;7.552;2023-04-01T14:02:14;12.18;;;8.35;;
68940;SDS011;55982;51.476;7.552;2023-04-01T14:14:18;12.27;;;7.97;;
68940;SDS011;55982;51.476;7.552;2023-04-01T14:35:31;10.38;;;6.85;;
68940;SDS011;55982;51.476;7.552;2023-04-01T14:38:09;9.97;;;7.00;;
68940;SDS011;55982;51.476;7.552;2023-04-01T14:48:34;8.02;;;6.07;;
68940;SDS011;55982;51.476;7.552;2023-04-01T14:56:43;6.55;;;4.70;;
68940;SDS011;55982;51.476;7.552;2023-04-01T14:59:25;7.40;;;4.95;;
68940;SDS011;55982;51.476;7.552;2023-04-01T15:10:00;6.35;;;4.30;;
68940;SDS011;55982;51.476;7.552;2023-04-01T15:15:57;6.18;;;3.80;;
68940;SDS011;55982;51.476;7.552;2023-04-01T15:24:11;6.25;;;3.92;;
68940;SDS011;55982;51.476;7.552;2023-04-01T15:27:01;6.72;;;4.63;;
68940;SDS011;55982;51.476;7.552;2023-04-01T15:35:23;7.40;;;5.10;;
68940;SDS011;55982;51.476;7.552;2023-04-01T15:38:17;9.13;;;5.85;;
68940;SDS011;55982;51.476;7.552;2023-04-01T15:57:10;13.10;;;8.73;;
68940;SDS011;55982;51.476;7.552;2023-04-01T15:59:51;16.02;;;8.57;;
68940;SDS011;55982;51.476;7.552;2023-04-01T16:10:25;19.38;;;11.20;;
68940;SDS011;55982;51.476;7.552;2023-04-01T16:15:33;21.38;;;11.77;;
68940;SDS011;55982;51.476;7.552;2023-04-01T16:20:57;20.75;;;12.63;;
68940;SDS011;55982;51.476;7.552;2023-04-01T16:23:49;20.50;;;12.55;;
68940;SDS011;55982;51.476;7.552;2023-04-01T16:26:19;23.23;;;13.98;;
68940;SDS011;55982;51.476;7.552;2023-04-01T16:28:57;23.58;;;13.70;;
68940;SDS011;55982;51.476;7.552;2023-04-01T16:31:37;24.42;;;13.85;;
68940;SDS011;55982;51.476;7.552;2023-04-01T16:34:08;22.75;;;13.93;;
68940;SDS011;55982;51.476;7.552;2023-04-01T16:37:07;20.63;;;12.45;;
68940;SDS011;55982;51.476;7.552;2023-04-01T16:39:46;21.65;;;13.07;;
68940;SDS011;55982;51.476;7.552;2023-04-01T16:45:19;22.73;;;13.27;;
68940;SDS011;55982;51.476;7.552;2023-04-01T16:47:58;21.67;;;13.23;;
68940;SDS011;55982;51.476;7.552;2023-04-01T16:55:46;22.73;;;12.50;;
68940;SDS011;55982;51.476;7.552;2023-04-01T16:58:35;19.63;;;12.93;;
68940;SDS011;55982;51.476;7.552;2023-04-01T17:04:12;19.88;;;11.88;;
68940;SDS011;55982;51.476;7.552;2023-04-01T17:06:55;17.42;;;11.57;;
68940;SDS011;55982;51.476;7.552;2023-04-01T17:14:49;16.08;;;10.35;;
68940;SDS011;55982;51.476;7.552;2023-04-01T17:17:45;19.15;;;10.60;;
68940;SDS011;55982;51.476;7.552;2023-04-01T17:31:17;13.35;;;9.32;;
68940;SDS011;55982;51.476;7.552;2023-04-01T17:34:05;15.80;;;10.32;;
68940;SDS011;55982;51.476;7.552;2023-04-01T17:42:09;14.73;;;9.20;;
68940;SDS011;55982;51.476;7.552;2023-04-01T17:50:30;11.60;;;7.25;;
68940;SDS011;55982;51.476;7.552;2023-04-01T17:56:08;14.60;;;7.85;;
68940;SDS011;55982;51.476;7.552;2023-04-01T17:58:45;13.40;;;7.93;;
68940;SDS011;55982;51.476;7.552;2023-04-01T18:06:33;15.07;;;9.35;;
68940;SDS011;55982;51.476;7.552;2023-04-01T18:11:59;16.00;;;9.88;;
68940;SDS011;55982;51.476;7.552;2023-04-01T18:15:02;15.07;;;9.80;;
68940;SDS011;55982;51.476;7.552;2023-04-01T18:20:22;21.15;;;12.50;;
68940;SDS011;55982;51.476;7.552;2023-04-01T18:22:58;18.50;;;11.80;;
68940;SDS011;55982;51.476;7.552;2023-04-01T18:25:37;19.73;;;12.40;;
68940;SDS011;55982;51.476;7.552;2023-04-01T18:28:24;19.05;;;11.95;;
68940;SDS011;55982;51.476;7.552;2023-04-01T18:39:07;19.58;;;12.60;;
68940;SDS011;55982;51.476;7.552;2023-04-01T18:44:18;22.90;;;13.57;;
68940;SDS011;55982;51.476;7.552;2023-04-01T18:57:26;30.27;;;16.92;;
68940;SDS011;55982;51.476;7.552;2023-04-01T19:00:13;28.92;;;16.23;;
68940;SDS011;55982;51.476;7.552;2023-04-01T19:05:45;28.17;;;15.85;;
68940;SDS011;55982;51.476;7.552;2023-04-01T19:08:18;27.85;;;15.23;;
68940;SDS011;55982;51.476;7.552;2023-04-01T19:13:45;30.55;;;16.58;;
68940;SDS011;55982;51.476;7.552;2023-04-01T19:16:27;31.08;;;17.17;;
68940;SDS011;55982;51.476;7.552;2023-04-01T19:19:24;31.58;;;16.88;;
68940;SDS011;55982;51.476;7.552;2023-04-01T19:22:13;26.60;;;15.75;;
68940;SDS011;55982;51.476;7.552;2023-04-01T19:25:02;28.13;;;15.32;;
68940;SDS011;55982;51.476;7.552;2023-04-01T19:27:37;31.85;;;17.98;;
68940;SDS011;55982;51.476;7.552;2023-04-01T19:32:51;35.28;;;18.17;;
68940;SDS011;55982;51.476;7.552;2023-04-01T19:35:49;33.65;;;16.95;;
68940;SDS011;55982;51.476;7.552;2023-04-01T19:52:36;30.40;;;16.27;;
68940;SDS011;55982;51.476;7.552;2023-04-01T19:55:09;30.77;;;16.33;;
68940;SDS011;55982;51.476;7.552;2023-04-01T20:08:32;21.42;;;12.75;;
68940;SDS011;55982;51.476;7.552;2023-04-01T20:16:37;16.92;;;10.25;;
68940;SDS011;55982;51.476;7.552;2023-04-01T20:19:13;20.20;;;11.52;;
68940;SDS011;55982;51.476;7.552;2023-04-01T20:21:42;23.02;;;12.38;;
68940;SDS011;55982;51.476;7.552;2023-04-01T20:26:41;19.70;;;11.18;;
68940;SDS011;55982;51.476;7.552;2023-04-01T20:29:55;20.40;;;12.23;;
68940;SDS011;55982;51.476;7.552;2023-04-01T20:40:44;25.77;;;15.27;;
68940;SDS011;55982;51.476;7.552;2023-04-01T20:43:17;25.98;;;14.65;;
68940;SDS011;55982;51.476;7.552;2023-04-01T20:48:55;31.00;;;16.55;;
68940;SDS011;55982;51.476;7.552;2023-04-01T20:51:32;25.13;;;13.95;;
68940;SDS011;55982;51.476;7.552;2023-04-01T20:54:12;30.55;;;15.38;;
68940;SDS011;55982;51.476;7.552;2023-04-01T21:29:11;9.05;;;5.90;;
68940;SDS011;55982;51.476;7.552;2023-04-01T21:32:09;9.43;;;6.10;;
68940;SDS011;55982;51.476;7.552;2023-04-01T21:37:33;10.90;;;7.35;;
68940;SDS011;55982;51.476;7.552;2023-04-01T21:45:25;12.00;;;6.85;;
68940;SDS011;55982;51.476;7.552;2023-04-01T22:06:50;11.70;;;6.63;;
68940;SDS011;55982;51.476;7.552;2023-04-01T22:09:25;10.38;;;7.20;;
68940;SDS011;55982;51.476;7.552;2023-04-01T22:17:12;11.00;;;7.82;;
68940;SDS011;55982;51.476;7.552;2023-04-01T22:19:58;12.30;;;7.25;;
68940;SDS011;55982;51.476;7.552;2023-04-01T22:25:46;10.75;;;7.22;;
68940;SDS011;55982;51.476;7.552;2023-04-01T22:28:16;12.88;;;7.20;;
68940;SDS011;55982;51.476;7.552;2023-04-01T22:30:52;13.05;;;8.20;;
68940;SDS011;55982;51.476;7.552;2023-04-01T22:38:27;10.63;;;7.13;;
68940;SDS011;55982;51.476;7.552;2023-04-01T22:41:24;13.65;;;7.28;;
68940;SDS011;55982;51.476;7.552;2023-04-01T22:44:01;10.30;;;6.10;;
68940;SDS011;55982;51.476;7.552;2023-04-01T22:49:20;11.93;;;6.82;;
68940;SDS011;55982;51.476;7.552;2023-04-01T22:51:49;12.10;;;6.90;;
68940;SDS011;55982;51.476;7.552;2023-04-01T22:54:21;11.02;;;7.32;;
68940;SDS011;55982;51.476;7.552;2023-04-01T23:02:25;13.48;;;7.78;;
68940;SDS011;55982;51.476;7.552;2023-04-01T23:04:55;9.43;;;6.95;;
68940;SDS011;55982;51.476;7.552;2023-04-01T23:07:33;11.15;;;8.25;;
68940;SDS011;55982;51.476;7.552;2023-04-01T23:13:02;14.35;;;8.68;;
68940;SDS011;55982;51.476;7.552;2023-04-01T23:15:30;14.60;;;8.50;;
68940;SDS011;55982;51.476;7.552;2023-04-01T23:20:52;12.43;;;8.30;;
68940;SDS011;55982;51.476;7.552;2023-04-01T23:28:56;12.85;;;8.30;;
68940;SDS011;55982;51.476;7.552;2023-04-01T23:36:58;13.85;;;8.32;;
68940;SDS011;55982;51.476;7.552;2023-04-01T23:39:34;11.85;;;7.50;;
68940;SDS011;55982;51.476;7.552;2023-04-01T23:42:06;15.38;;;8.30;;
68940;SDS011;55982;51.476;7.552;2023-04-01T23:44:37;14.25;;;8.10;;
68940;SDS011;55982;51.476;7.552;2023-04-01T23:47:04;14.32;;;8.35;;
68940;SDS011;55982;51.476;7.552;2023-04-01T23:49:35;13.43;;;8.27;;
68940;SDS011;55982;51.476;7.552;2023-04-01T23:54:52;14.35;;;7.95;;
68940;SDS011;55982;51.476;7.552;2023-04-01T23:57:39;14.02;;;9.00;;
